createdAt,value
2018-12-16T00:02:13.596Z,15.47
2018-12-16T00:04:42.518Z,15.50
2018-12-16T00:07:10.476Z,17.00
2018-12-16T00:09:38.011Z,16.73
2018-12-16T00:12:05.481Z,17.60
2018-12-16T00:14:33.025Z,17.43
2018-12-16T00:17:00.489Z,16.13
2018-12-16T00:19:28.156Z,16.87
2018-12-16T00:21:55.610Z,17.03
2018-12-16T00:24:23.120Z,16.63
2018-12-16T00:27:02.597Z,17.10
2018-12-16T00:29:30.056Z,17.83
2018-12-16T00:31:57.496Z,20.00
2018-12-16T00:34:25.035Z,22.97
2018-12-16T00:36:52.529Z,23.50
2018-12-16T00:39:19.984Z,21.23
2018-12-16T00:41:47.542Z,21.00
2018-12-16T00:44:15.059Z,22.03
2018-12-16T00:46:42.561Z,19.57
2018-12-16T00:49:10.022Z,20.33
2018-12-16T00:51:37.577Z,19.17
2018-12-16T00:54:05.135Z,18.57
2018-12-16T00:56:32.680Z,19.00
2018-12-16T00:59:00.154Z,17.83
2018-12-16T01:01:27.706Z,18.87
2018-12-16T01:03:55.181Z,18.90
2018-12-16T01:06:22.726Z,19.03
2018-12-16T01:08:50.184Z,19.10
2018-12-16T01:11:17.648Z,19.43
2018-12-16T01:13:45.195Z,21.03
2018-12-16T01:16:12.644Z,23.00
2018-12-16T01:18:40.210Z,23.07
2018-12-16T01:21:08.616Z,22.53
2018-12-16T01:23:36.145Z,21.63
2018-12-16T01:26:03.692Z,21.43
2018-12-16T01:28:31.149Z,21.37
2018-12-16T01:30:58.716Z,18.83
2018-12-16T01:33:26.161Z,19.70
2018-12-16T01:35:53.625Z,18.37
2018-12-16T01:38:21.104Z,18.60
2018-12-16T01:40:48.544Z,17.90
2018-12-16T01:43:16.005Z,18.40
2018-12-16T01:45:43.469Z,16.97
2018-12-16T01:48:11.017Z,18.57
2018-12-16T01:50:38.469Z,17.43
2018-12-16T01:53:05.918Z,17.90
2018-12-16T01:55:33.484Z,18.20
2018-12-16T01:58:00.957Z,18.00
2018-12-16T02:00:28.552Z,19.07
2018-12-16T02:02:56.065Z,18.17
2018-12-16T02:05:23.616Z,17.93
2018-12-16T02:07:51.176Z,16.23
2018-12-16T02:10:18.764Z,17.37
2018-12-16T02:12:46.236Z,17.03
2018-12-16T02:15:13.748Z,17.23
2018-12-16T02:17:41.308Z,17.97
2018-12-16T02:20:08.819Z,18.13
2018-12-16T02:22:36.289Z,17.80
2018-12-16T02:25:05.694Z,16.97
2018-12-16T02:27:33.254Z,16.70
2018-12-16T02:30:00.802Z,17.93
2018-12-16T02:32:28.360Z,18.90
2018-12-16T02:34:55.819Z,17.90
2018-12-16T02:37:23.373Z,17.70
2018-12-16T02:39:50.816Z,18.37
2018-12-16T02:42:18.399Z,18.57
2018-12-16T02:44:45.961Z,16.90
2018-12-16T02:47:13.403Z,17.23
2018-12-16T02:49:40.969Z,18.37
2018-12-16T02:52:08.425Z,18.17
2018-12-16T02:54:35.876Z,17.97
2018-12-16T02:57:03.348Z,18.03
2018-12-16T02:59:30.784Z,16.20
2018-12-16T03:01:58.232Z,17.67
2018-12-16T03:04:25.758Z,17.43
2018-12-16T03:06:53.357Z,17.73
2018-12-16T03:09:20.921Z,17.87
2018-12-16T03:11:48.404Z,17.60
2018-12-16T03:14:15.923Z,17.73
2018-12-16T03:16:43.501Z,18.10
2018-12-16T03:19:11.048Z,18.40
2018-12-16T03:21:38.508Z,17.60
2018-12-16T03:24:05.952Z,18.30
2018-12-16T03:26:36.011Z,17.87
2018-12-16T03:29:02.913Z,18.30
2018-12-16T03:31:30.381Z,17.90
2018-12-16T03:33:57.943Z,18.90
2018-12-16T03:36:25.386Z,18.93
2018-12-16T03:38:52.858Z,17.67
2018-12-16T03:41:20.313Z,18.20
2018-12-16T03:43:47.754Z,18.03
2018-12-16T03:46:15.249Z,18.80
2018-12-16T03:48:42.726Z,18.27
2018-12-16T03:51:10.246Z,18.23
2018-12-16T03:53:37.696Z,18.23
2018-12-16T03:56:05.262Z,18.17
2018-12-16T03:58:32.722Z,17.90
2018-12-16T04:01:00.163Z,17.83
2018-12-16T04:03:27.601Z,17.93
2018-12-16T04:05:55.349Z,17.47
2018-12-16T04:08:22.841Z,18.53
2018-12-16T04:10:50.300Z,16.93
2018-12-16T04:13:17.744Z,18.90
2018-12-16T04:15:45.226Z,18.20
2018-12-16T04:18:12.787Z,17.77
2018-12-16T04:20:40.330Z,18.63
2018-12-16T04:23:07.794Z,18.13
2018-12-16T04:25:35.235Z,18.30
2018-12-16T04:28:02.800Z,19.30
2018-12-16T04:30:30.262Z,18.03
2018-12-16T04:32:57.700Z,17.47
2018-12-16T04:35:25.174Z,18.53
2018-12-16T04:37:52.626Z,18.47
2018-12-16T04:40:20.095Z,17.87
2018-12-16T04:42:47.565Z,18.87
2018-12-16T04:45:15.034Z,18.80
2018-12-16T04:47:42.464Z,18.90
2018-12-16T04:50:09.934Z,17.37
2018-12-16T04:52:37.482Z,18.90
2018-12-16T04:55:05.030Z,18.57
2018-12-16T04:57:32.495Z,17.63
2018-12-16T04:59:59.929Z,18.00
2018-12-16T05:02:27.404Z,18.43
2018-12-16T05:04:54.853Z,18.30
2018-12-16T05:07:22.318Z,18.83
2018-12-16T05:09:49.765Z,17.17
2018-12-16T05:12:17.215Z,17.43
2018-12-16T05:14:44.676Z,18.63
2018-12-16T05:17:12.212Z,17.67
2018-12-16T05:19:39.700Z,18.57
2018-12-16T05:22:07.631Z,17.63
2018-12-16T05:24:35.131Z,18.17
2018-12-16T05:27:02.579Z,17.67
2018-12-16T05:29:30.142Z,17.70
2018-12-16T05:31:57.593Z,17.10
2018-12-16T05:34:25.031Z,18.50
2018-12-16T05:36:52.469Z,17.30
2018-12-16T05:39:19.960Z,17.20
2018-12-16T05:41:47.413Z,17.93
2018-12-16T05:44:14.839Z,17.73
2018-12-16T05:46:42.332Z,17.23
2018-12-16T05:49:09.793Z,18.73
2018-12-16T05:51:37.239Z,18.20
2018-12-16T05:54:04.704Z,17.97
2018-12-16T05:56:32.145Z,17.27
2018-12-16T05:58:59.716Z,17.33
2018-12-16T06:01:27.281Z,17.33
2018-12-16T06:03:54.832Z,17.97
2018-12-16T06:06:22.293Z,16.70
2018-12-16T06:08:49.761Z,17.33
2018-12-16T06:11:17.299Z,17.60
2018-12-16T06:13:44.751Z,17.13
2018-12-16T06:16:12.240Z,16.53
2018-12-16T06:18:39.700Z,17.00
2018-12-16T06:21:07.229Z,16.30
2018-12-16T06:23:34.661Z,17.03
2018-12-16T06:26:02.129Z,18.33
2018-12-16T06:28:29.569Z,16.83
2018-12-16T06:30:57.056Z,16.50
2018-12-16T06:33:24.632Z,16.83
2018-12-16T06:35:52.198Z,17.30
2018-12-16T06:38:20.514Z,15.97
2018-12-16T06:40:48.072Z,16.30
2018-12-16T06:43:15.566Z,15.33
2018-12-16T06:45:42.996Z,16.77
2018-12-16T06:48:13.874Z,15.33
2018-12-16T06:50:41.308Z,17.70
2018-12-16T06:53:08.744Z,16.93
2018-12-16T06:55:43.130Z,14.67
2018-12-16T06:58:05.842Z,16.33
2018-12-16T07:00:33.344Z,15.57
2018-12-16T07:03:04.604Z,17.43
2018-12-16T07:05:32.093Z,16.47
2018-12-16T07:07:59.520Z,16.53
2018-12-16T07:10:26.966Z,15.07
2018-12-16T07:12:54.412Z,15.40
2018-12-16T07:15:21.922Z,16.23
2018-12-16T07:17:49.433Z,15.50
2018-12-16T07:20:17.035Z,16.10
2018-12-16T07:22:44.497Z,16.47
2018-12-16T07:25:11.988Z,16.97
2018-12-16T07:27:39.520Z,19.90
2018-12-16T07:30:07.786Z,15.50
2018-12-16T07:32:35.356Z,15.93
2018-12-16T07:35:02.926Z,15.73
2018-12-16T07:37:30.543Z,15.47
2018-12-16T07:39:57.985Z,17.07
2018-12-16T07:42:29.498Z,15.57
2018-12-16T07:44:57.070Z,14.90
2018-12-16T07:47:24.514Z,14.70
2018-12-16T07:49:52.037Z,15.30
2018-12-16T07:52:19.595Z,15.43
2018-12-16T07:54:47.052Z,15.53
2018-12-16T07:57:14.516Z,14.47
2018-12-16T07:59:41.969Z,15.40
2018-12-16T08:02:09.432Z,15.13
2018-12-16T08:04:37.007Z,16.43
2018-12-16T08:07:04.578Z,15.83
2018-12-16T08:09:32.105Z,15.80
2018-12-16T08:11:59.559Z,15.17
2018-12-16T08:14:27.020Z,15.80
2018-12-16T08:16:54.460Z,26.80
2018-12-16T08:19:22.032Z,14.77
2018-12-16T08:21:49.486Z,16.93
2018-12-16T08:24:22.969Z,17.40
2018-12-16T08:26:46.390Z,15.43
2018-12-16T08:29:13.929Z,16.77
2018-12-16T08:31:41.360Z,16.60
2018-12-16T08:34:08.853Z,14.97
2018-12-16T08:36:36.300Z,16.20
2018-12-16T08:39:05.497Z,16.53
2018-12-16T08:41:32.945Z,16.00
2018-12-16T08:44:00.398Z,14.90
2018-12-16T08:46:27.879Z,14.97
2018-12-16T08:48:55.319Z,16.63
2018-12-16T08:51:22.766Z,15.80
2018-12-16T08:53:50.228Z,15.70
2018-12-16T08:56:17.685Z,16.47
2018-12-16T08:58:45.147Z,18.23
2018-12-16T09:01:12.599Z,16.20
2018-12-16T09:03:40.045Z,15.37
2018-12-16T09:06:07.516Z,17.40
2018-12-16T09:11:50.249Z,18.20
2018-12-16T09:14:17.713Z,17.60
2018-12-16T09:16:45.251Z,16.17
2018-12-16T09:19:12.702Z,16.23
2018-12-16T09:21:40.173Z,17.67
2018-12-16T09:24:07.716Z,17.40
2018-12-16T09:26:35.172Z,17.43
2018-12-16T09:29:02.745Z,17.37
2018-12-16T09:31:30.305Z,18.00
2018-12-16T09:33:57.747Z,16.83
2018-12-16T09:36:25.225Z,18.40
2018-12-16T09:38:52.679Z,18.20
2018-12-16T09:41:20.133Z,18.33
2018-12-16T09:43:47.613Z,19.67
2018-12-16T09:46:15.149Z,19.13
2018-12-16T09:48:42.625Z,19.70
2018-12-16T09:51:10.171Z,20.03
2018-12-16T09:53:37.628Z,19.70
2018-12-16T09:56:05.123Z,19.77
2018-12-16T09:58:32.760Z,20.87
2018-12-16T10:01:00.262Z,21.73
2018-12-16T10:03:28.997Z,23.17
2018-12-16T10:05:56.556Z,20.93
2018-12-16T10:08:25.844Z,23.00
2018-12-16T10:10:53.289Z,22.30
2018-12-16T10:13:20.739Z,23.67
2018-12-16T10:15:48.179Z,23.43
2018-12-16T10:18:15.651Z,22.70
2018-12-16T10:20:43.164Z,22.77
2018-12-16T10:23:10.642Z,22.60
2018-12-16T10:25:38.170Z,24.57
2018-12-16T10:28:05.613Z,24.23
2018-12-16T10:30:33.089Z,22.07
2018-12-16T10:33:01.323Z,23.53
2018-12-16T10:35:28.880Z,23.57
2018-12-16T10:37:56.646Z,22.50
2018-12-16T10:40:24.091Z,24.10
2018-12-16T10:42:51.553Z,23.37
2018-12-16T10:45:19.228Z,23.27
2018-12-16T10:47:46.652Z,23.53
2018-12-16T10:50:14.149Z,24.87
2018-12-16T10:52:41.689Z,31.12
2018-12-16T10:55:09.140Z,25.40
2018-12-16T10:57:36.579Z,24.57
2018-12-16T11:00:08.563Z,24.07
2018-12-16T11:02:36.039Z,23.27
2018-12-16T11:05:03.996Z,23.70
2018-12-16T11:07:31.430Z,24.37
2018-12-16T11:09:58.999Z,25.13
2018-12-16T11:12:26.672Z,23.07
2018-12-16T11:14:54.120Z,25.37
2018-12-16T11:17:21.624Z,25.03
2018-12-16T11:19:49.065Z,24.73
2018-12-16T11:22:16.605Z,25.53
2018-12-16T11:24:44.045Z,24.77
2018-12-16T11:27:11.514Z,26.13
2018-12-16T11:29:38.977Z,24.87
2018-12-16T11:32:06.448Z,23.77
2018-12-16T11:34:33.953Z,24.97
2018-12-16T11:37:01.449Z,24.83
2018-12-16T11:39:28.914Z,25.90
2018-12-16T11:41:56.473Z,24.87
2018-12-16T11:44:23.917Z,24.57
2018-12-16T11:46:51.410Z,23.67
2018-12-16T11:49:18.940Z,24.47
2018-12-16T11:51:46.704Z,24.67
2018-12-16T11:54:14.269Z,24.03
2018-12-16T11:56:41.737Z,26.30
2018-12-16T11:59:09.289Z,26.50
2018-12-16T12:01:36.822Z,25.20
2018-12-16T12:04:05.355Z,26.10
2018-12-16T12:06:33.083Z,25.13
2018-12-16T12:09:00.558Z,24.60
2018-12-16T12:11:27.990Z,23.87
2018-12-16T12:13:55.488Z,25.40
2018-12-16T12:16:23.018Z,23.67
2018-12-16T12:18:59.832Z,24.23
2018-12-16T12:21:27.353Z,24.40
2018-12-16T12:23:55.529Z,24.00
2018-12-16T12:26:22.997Z,24.53
2018-12-16T12:28:50.449Z,23.60
2018-12-16T12:31:17.912Z,24.67
2018-12-16T12:33:45.444Z,23.50
2018-12-16T12:36:13.120Z,23.37
2018-12-16T12:38:40.564Z,23.60
2018-12-16T12:41:08.021Z,23.27
2018-12-16T12:43:35.503Z,23.33
2018-12-16T12:46:02.940Z,24.93
2018-12-16T12:48:30.495Z,24.73
2018-12-16T12:50:58.140Z,25.63
2018-12-16T12:53:25.617Z,25.70
2018-12-16T12:55:53.121Z,25.53
2018-12-16T12:58:20.649Z,28.70
2018-12-16T13:00:48.184Z,26.90
2018-12-16T13:03:15.645Z,27.87
2018-12-16T13:05:43.100Z,25.60
2018-12-16T13:08:10.561Z,27.40
2018-12-16T13:10:38.065Z,25.97
2018-12-16T13:13:05.528Z,24.80
2018-12-16T13:15:33.042Z,25.83
2018-12-16T13:18:00.584Z,24.40
2018-12-16T13:20:28.109Z,24.93
2018-12-16T13:22:55.572Z,25.13
2018-12-16T13:25:35.717Z,24.80
2018-12-16T13:28:03.490Z,25.53
2018-12-16T13:30:30.976Z,25.47
2018-12-16T13:32:58.431Z,25.63
2018-12-16T13:35:25.917Z,26.27
2018-12-16T13:37:53.352Z,25.47
2018-12-16T13:40:20.909Z,25.07
2018-12-16T13:42:48.436Z,24.97
2018-12-16T13:45:16.030Z,26.47
2018-12-16T13:47:43.583Z,25.47
2018-12-16T13:50:11.095Z,25.70
2018-12-16T13:52:38.598Z,24.90
2018-12-16T13:55:06.364Z,25.47
2018-12-16T13:57:34.828Z,25.60
2018-12-16T14:00:02.318Z,25.47
2018-12-16T14:02:29.765Z,26.43
2018-12-16T14:04:57.201Z,26.50
2018-12-16T14:07:24.633Z,25.03
2018-12-16T14:09:52.138Z,26.00
2018-12-16T14:12:19.584Z,24.17
2018-12-16T14:14:47.052Z,24.63
2018-12-16T14:17:14.496Z,26.40
2018-12-16T14:19:41.960Z,26.50
2018-12-16T14:22:09.396Z,25.30
2018-12-16T14:24:36.867Z,27.07
2018-12-16T14:27:04.369Z,25.87
2018-12-16T14:29:31.889Z,27.27
2018-12-16T14:31:59.328Z,27.20
2018-12-16T14:34:26.800Z,26.80
2018-12-16T14:36:54.355Z,28.23
2018-12-16T14:39:21.917Z,28.13
2018-12-16T14:41:49.369Z,28.97
2018-12-16T14:44:16.832Z,28.00
2018-12-16T14:46:44.293Z,28.83
2018-12-16T14:49:11.724Z,28.30
2018-12-16T14:51:39.193Z,28.10
2018-12-16T14:54:06.647Z,33.93
2018-12-16T14:56:34.214Z,34.13
2018-12-16T14:59:01.653Z,29.00
2018-12-16T15:01:29.125Z,39.47
2018-12-16T15:03:56.556Z,28.77
2018-12-16T15:06:24.107Z,31.40
2018-12-16T15:08:51.556Z,30.27
2018-12-16T15:11:19.061Z,29.97
2018-12-16T15:13:46.508Z,32.00
2018-12-16T15:16:13.952Z,28.87
2018-12-16T15:18:41.416Z,29.13
2018-12-16T15:21:08.845Z,29.30
2018-12-16T15:23:36.341Z,31.50
2018-12-16T15:26:03.896Z,31.63
2018-12-16T15:28:31.461Z,31.93
2018-12-16T15:30:58.908Z,30.93
2018-12-16T15:33:26.477Z,39.48
2018-12-16T15:35:53.909Z,32.90
2018-12-16T15:38:21.387Z,30.17
2018-12-16T15:40:48.841Z,29.97
2018-12-16T15:43:16.301Z,29.33
2018-12-16T15:45:43.749Z,30.80
2018-12-16T15:48:11.321Z,32.27
2018-12-16T15:50:38.784Z,33.70
2018-12-16T15:53:06.329Z,31.20
2018-12-16T15:55:33.893Z,32.73
2018-12-16T15:58:01.370Z,32.93
2018-12-16T16:00:28.896Z,31.73
2018-12-16T16:02:56.461Z,31.57
2018-12-16T16:05:23.911Z,30.00
2018-12-16T16:07:51.380Z,31.77
2018-12-16T16:10:18.937Z,33.60
2018-12-16T16:12:46.466Z,34.97
2018-12-16T16:15:13.940Z,34.17
2018-12-16T16:17:41.412Z,32.40
2018-12-16T16:20:08.989Z,34.73
2018-12-16T16:22:36.525Z,32.77
2018-12-16T16:25:04.406Z,33.67
2018-12-16T16:27:31.942Z,33.10
2018-12-16T16:29:59.488Z,32.70
2018-12-16T16:32:26.933Z,33.20
2018-12-16T16:34:54.516Z,32.30
2018-12-16T16:37:21.980Z,33.60
2018-12-16T16:39:49.532Z,30.63
2018-12-16T16:42:18.518Z,32.23
2018-12-16T16:44:45.993Z,32.10
2018-12-16T16:47:13.551Z,33.70
2018-12-16T16:49:41.012Z,33.33
2018-12-16T16:52:09.027Z,33.93
2018-12-16T16:54:36.565Z,31.50
2018-12-16T16:57:04.045Z,32.40
2018-12-16T16:59:31.540Z,32.57
2018-12-16T17:01:59.942Z,30.67
2018-12-16T17:04:27.374Z,30.83
2018-12-16T17:06:55.549Z,30.43
2018-12-16T17:09:23.184Z,31.83
2018-12-16T17:11:51.298Z,33.87
2018-12-16T17:14:18.892Z,32.33
2018-12-16T17:16:46.358Z,32.77
2018-12-16T17:19:13.840Z,33.23
2018-12-16T17:21:42.106Z,32.90
2018-12-16T17:24:09.536Z,32.37
2018-12-16T17:26:37.104Z,33.57
2018-12-16T17:29:04.529Z,32.57
2018-12-16T17:31:31.977Z,33.70
2018-12-16T17:33:59.408Z,34.13
2018-12-16T17:36:27.073Z,32.13
2018-12-16T17:38:54.525Z,31.07
2018-12-16T17:41:21.980Z,32.90
2018-12-16T17:43:49.441Z,31.90
2018-12-16T17:46:17.007Z,30.83
2018-12-16T17:48:44.495Z,33.17
2018-12-16T17:51:12.021Z,31.70
2018-12-16T17:53:39.474Z,31.47
2018-12-16T17:56:07.213Z,31.07
2018-12-16T17:58:34.651Z,32.70
2018-12-16T18:01:02.164Z,34.17
2018-12-16T18:03:29.700Z,32.97
2018-12-16T18:05:57.164Z,32.40
2018-12-16T18:08:24.626Z,32.50
2018-12-16T18:10:52.174Z,30.97
2018-12-16T18:13:19.608Z,34.93
2018-12-16T18:15:47.080Z,32.37
2018-12-16T18:18:14.525Z,30.67
2018-12-16T18:20:42.001Z,33.27
2018-12-16T18:23:09.463Z,32.57
2018-12-16T18:25:36.917Z,35.43
2018-12-16T18:28:04.486Z,36.93
2018-12-16T18:30:31.918Z,32.37
2018-12-16T18:32:59.628Z,34.13
2018-12-16T18:35:27.056Z,32.67
2018-12-16T18:37:54.644Z,34.20
2018-12-16T18:40:22.160Z,34.17
2018-12-16T18:42:49.852Z,34.57
2018-12-16T18:45:17.309Z,36.80
2018-12-16T18:47:44.739Z,34.43
2018-12-16T18:50:12.292Z,35.27
2018-12-16T18:52:39.757Z,34.53
2018-12-16T18:55:08.215Z,33.97
2018-12-16T18:57:35.992Z,33.53
2018-12-16T19:00:05.791Z,33.70
2018-12-16T19:02:33.300Z,33.57
2018-12-16T19:05:00.819Z,39.67
2018-12-16T19:07:28.265Z,42.03
2018-12-16T19:09:55.727Z,36.47
2018-12-16T19:12:23.293Z,40.13
2018-12-16T19:14:51.130Z,37.13
2018-12-16T19:17:18.616Z,37.00
2018-12-16T19:19:46.060Z,34.90
2018-12-16T19:22:13.501Z,35.77
2018-12-16T19:24:40.941Z,34.57
2018-12-16T19:27:08.416Z,36.87
2018-12-16T19:29:35.884Z,32.57
2018-12-16T19:32:03.392Z,32.70
2018-12-16T19:34:30.930Z,36.07
2018-12-16T19:36:58.406Z,34.30
2018-12-16T19:39:25.978Z,34.40
2018-12-16T19:41:53.489Z,37.23
2018-12-16T19:44:20.968Z,35.27
2018-12-16T19:46:48.420Z,36.93
2018-12-16T19:49:15.862Z,35.03
2018-12-16T19:51:43.339Z,35.13
2018-12-16T19:54:10.897Z,33.40
2018-12-16T19:56:38.348Z,33.50
2018-12-16T19:59:05.957Z,35.40
2018-12-16T20:01:33.427Z,33.03
2018-12-16T20:04:06.541Z,31.67
2018-12-16T20:06:39.609Z,34.87
2018-12-16T20:09:07.318Z,32.80
2018-12-16T20:11:34.773Z,35.17
2018-12-16T20:14:02.329Z,31.93
2018-12-16T20:16:29.789Z,33.53
2018-12-16T20:18:57.350Z,32.37
2018-12-16T20:21:24.790Z,33.63
2018-12-16T20:23:52.213Z,35.13
2018-12-16T20:26:19.676Z,34.10
2018-12-16T20:28:47.228Z,35.93
2018-12-16T20:31:14.790Z,36.67
2018-12-16T20:33:42.344Z,36.80
2018-12-16T20:36:09.777Z,35.17
2018-12-16T20:38:37.265Z,33.63
2018-12-16T20:41:04.734Z,33.00
2018-12-16T20:43:32.160Z,34.80
2018-12-16T20:45:59.820Z,34.17
2018-12-16T20:48:27.291Z,36.27
2018-12-16T20:50:54.716Z,33.33
2018-12-16T20:53:22.257Z,33.20
2018-12-16T20:55:49.727Z,33.93
2018-12-16T20:58:17.226Z,33.47
2018-12-16T21:00:44.656Z,34.63
2018-12-16T21:03:12.117Z,32.63
2018-12-16T21:05:39.594Z,33.37
2018-12-16T21:08:07.049Z,33.50
2018-12-16T21:10:34.496Z,34.27
2018-12-16T21:13:07.653Z,34.53
2018-12-16T21:15:40.836Z,33.33
2018-12-16T21:18:13.988Z,34.17
2018-12-16T21:20:41.422Z,35.13
2018-12-16T21:23:08.848Z,32.97
2018-12-16T21:25:36.338Z,34.63
2018-12-16T21:28:03.908Z,32.23
2018-12-16T21:30:31.457Z,34.50
2018-12-16T21:32:58.917Z,35.60
2018-12-16T21:35:26.372Z,35.93
2018-12-16T21:37:53.868Z,38.10
2018-12-16T21:40:21.300Z,39.07
2018-12-16T21:42:48.848Z,40.93
2018-12-16T21:45:16.297Z,39.80
2018-12-16T21:47:43.853Z,43.47
2018-12-16T21:50:12.629Z,41.40
2018-12-16T21:52:40.200Z,39.27
2018-12-16T21:55:07.665Z,37.30
2018-12-16T21:57:35.185Z,35.53
2018-12-16T22:00:02.677Z,36.83
2018-12-16T22:02:30.133Z,36.63
2018-12-16T22:04:57.584Z,36.10
2018-12-16T22:07:25.039Z,35.27
2018-12-16T22:09:52.484Z,35.23
2018-12-16T22:12:20.129Z,35.77
2018-12-16T22:14:47.616Z,36.87
2018-12-16T22:17:15.092Z,36.53
2018-12-16T22:19:42.628Z,35.33
2018-12-16T22:22:10.103Z,36.67
2018-12-16T22:24:37.621Z,34.87
2018-12-16T22:27:05.048Z,32.73
2018-12-16T22:29:32.682Z,34.93
2018-12-16T22:32:00.169Z,35.67
2018-12-16T22:34:27.604Z,35.67
2018-12-16T22:36:55.145Z,35.07
2018-12-16T22:39:22.577Z,40.53
2018-12-16T22:41:50.013Z,40.30
2018-12-16T22:44:17.501Z,37.47
2018-12-16T22:46:44.958Z,37.13
2018-12-16T22:49:12.492Z,40.47
2018-12-16T22:51:39.972Z,38.30
2018-12-16T22:54:07.404Z,43.43
2018-12-16T22:56:34.832Z,39.20
2018-12-16T22:59:02.352Z,42.97
2018-12-16T23:01:29.796Z,40.23
2018-12-16T23:03:57.261Z,38.93
2018-12-16T23:06:24.738Z,40.27
2018-12-16T23:08:52.278Z,42.53
2018-12-16T23:11:19.728Z,39.43
2018-12-16T23:13:47.189Z,37.03
2018-12-16T23:16:14.639Z,42.47
2018-12-16T23:18:42.239Z,40.37
2018-12-16T23:21:11.188Z,38.60
2018-12-16T23:23:39.060Z,38.07
2018-12-16T23:26:06.519Z,37.80
2018-12-16T23:28:34.013Z,38.97
2018-12-16T23:31:01.477Z,37.33
2018-12-16T23:33:29.058Z,40.37
2018-12-16T23:35:56.549Z,35.70
2018-12-16T23:38:24.007Z,37.23
2018-12-16T23:40:51.561Z,39.33
2018-12-16T23:43:19.120Z,37.77
2018-12-16T23:45:46.671Z,40.67
2018-12-16T23:48:14.233Z,36.73
2018-12-16T23:50:41.793Z,40.80
2018-12-16T23:53:09.248Z,37.40
2018-12-16T23:55:36.704Z,38.20
2018-12-16T23:58:04.164Z,38.90
